createdAt,value
2016-07-24T00:00:30.352Z,86.42
2016-07-24T00:01:30.377Z,86.52
2016-07-24T00:02:30.404Z,86.61
2016-07-24T00:03:31.132Z,86.13
2016-07-24T00:04:30.460Z,86.04
2016-07-24T00:05:30.501Z,86.32
2016-07-24T00:06:30.518Z,86.42
2016-07-24T00:07:30.543Z,86.04
2016-07-24T00:08:30.567Z,85.84
2016-07-24T00:11:30.652Z,85.94
2016-07-24T00:12:30.695Z,86.13
2016-07-24T00:13:30.718Z,86.13
2016-07-24T00:15:31.464Z,86.42
2016-07-24T00:16:30.787Z,86.32
2016-07-24T00:17:30.826Z,85.75
2016-07-24T00:18:30.844Z,86.13
2016-07-24T00:19:30.919Z,86.04
2016-07-24T00:20:30.896Z,86.42
2016-07-24T00:21:30.926Z,86.32
2016-07-24T00:22:30.953Z,86.04
2016-07-24T00:23:30.984Z,86.13
2016-07-24T00:24:31.021Z,86.52
2016-07-24T00:25:31.040Z,86.52
2016-07-24T00:26:31.060Z,85.94
2016-07-24T00:27:31.091Z,86.32
2016-07-24T00:28:31.117Z,86.42
2016-07-24T00:29:31.156Z,86.42
2016-07-24T00:30:46.094Z,86.71
2016-07-24T00:31:31.206Z,87.38
2016-07-24T00:32:31.224Z,86.9
2016-07-24T00:33:31.256Z,87.38
2016-07-24T00:34:31.282Z,87.38
2016-07-24T00:35:32.007Z,87.67
2016-07-24T00:36:31.336Z,86.32
2016-07-24T00:37:31.364Z,87.57
2016-07-24T00:38:31.394Z,87.38
2016-07-24T00:39:31.419Z,86.71
2016-07-24T00:40:31.448Z,87.48
2016-07-24T00:41:31.473Z,87.09
2016-07-24T00:43:31.538Z,87.57
2016-07-24T00:44:31.554Z,87.76
2016-07-24T00:45:31.583Z,87.92
2016-07-24T00:46:46.533Z,87.82
2016-07-24T00:47:31.639Z,87.34
2016-07-24T00:48:31.666Z,88.24
2016-07-24T00:49:31.689Z,88.01
2016-07-24T00:50:31.716Z,87.92
2016-07-24T00:51:31.753Z,88.1
2016-07-24T00:52:31.777Z,87.24
2016-07-24T00:53:31.805Z,87.48
2016-07-24T00:54:31.843Z,87.38
2016-07-24T00:55:31.870Z,88.2
2016-07-24T00:56:31.885Z,87.82
2016-07-24T00:57:31.918Z,87.76
2016-07-24T00:58:31.941Z,87.43
2016-07-24T00:59:31.964Z,88.01
2016-07-24T01:01:32.017Z,87.72
2016-07-24T01:02:46.972Z,87.92
2016-07-24T01:04:32.104Z,88.01
2016-07-24T01:05:32.131Z,87.34
2016-07-24T01:06:32.158Z,87.29
2016-07-24T01:07:32.188Z,88.1
2016-07-24T01:08:32.212Z,87.72
2016-07-24T01:09:32.946Z,87.62
2016-07-24T01:10:32.265Z,88.1
2016-07-24T01:11:32.296Z,88.1
2016-07-24T01:12:32.323Z,87.72
2016-07-24T01:13:32.347Z,87.92
2016-07-24T01:14:32.371Z,87.82
2016-07-24T01:15:32.404Z,87.82
2016-07-24T01:16:32.425Z,88.2
2016-07-24T01:17:32.454Z,88.01
2016-07-24T01:18:47.405Z,88.78
2016-07-24T01:19:32.519Z,88.59
2016-07-24T01:20:32.540Z,88.68
2016-07-24T01:21:32.564Z,89.16
2016-07-24T01:22:32.591Z,88.68
2016-07-24T01:23:32.621Z,88.39
2016-07-24T01:24:32.648Z,88.68
2016-07-24T01:25:32.676Z,88.3
2016-07-24T01:26:32.697Z,89.07
2016-07-24T01:27:32.727Z,89.07
2016-07-24T01:28:32.750Z,88.87
2016-07-24T01:29:32.786Z,88.87
2016-07-24T01:30:32.809Z,88.59
2016-07-24T01:31:32.837Z,88.59
2016-07-24T01:32:32.866Z,88.68
2016-07-24T01:33:47.816Z,88.1
2016-07-24T01:34:32.918Z,88.87
2016-07-24T01:35:32.946Z,88.49
2016-07-24T01:36:32.974Z,88.49
2016-07-24T01:37:33.005Z,88.3
2016-07-24T01:38:33.030Z,88.97
2016-07-24T01:39:33.053Z,88.87
2016-07-24T01:40:33.084Z,89.07
2016-07-24T01:41:33.116Z,88.39
2016-07-24T01:42:33.141Z,88.78
2016-07-24T01:43:33.168Z,88.97
2016-07-24T01:44:33.198Z,88.59
2016-07-24T01:46:33.245Z,89.16
2016-07-24T01:47:33.271Z,89.12
2016-07-24T01:51:34.087Z,89.36
2016-07-24T01:52:33.409Z,89.12
2016-07-24T01:53:33.439Z,89.16
2016-07-24T01:54:33.460Z,89.16
2016-07-24T01:55:33.497Z,89.31
2016-07-24T01:56:33.518Z,89.31
2016-07-24T01:57:33.551Z,89.12
2016-07-24T01:58:33.568Z,89.12
2016-07-24T02:00:33.628Z,89.31
2016-07-24T02:01:33.653Z,88.87
2016-07-24T02:02:33.686Z,89.16
2016-07-24T02:03:33.713Z,89.16
2016-07-24T02:04:33.738Z,89.02
2016-07-24T02:05:48.686Z,88.68
2016-07-24T02:06:33.798Z,88.3
2016-07-24T02:07:33.817Z,88.2
2016-07-24T02:08:33.845Z,89.07
2016-07-24T02:09:33.872Z,88.87
2016-07-24T02:10:33.895Z,89.07
2016-07-24T02:11:33.927Z,89.16
2016-07-24T02:12:33.952Z,88.97
2016-07-24T02:13:33.977Z,89.16
2016-07-24T02:14:34.016Z,89.36
2016-07-24T02:15:34.035Z,88.59
2016-07-24T02:16:34.064Z,88.73
2016-07-24T02:17:34.092Z,88.49
2016-07-24T02:18:34.121Z,88.97
2016-07-24T02:19:34.137Z,88.73
2016-07-24T02:20:34.169Z,88.64
2016-07-24T02:21:49.121Z,89.36
2016-07-24T02:22:34.227Z,89.22
2016-07-24T02:23:34.252Z,89.31
2016-07-24T02:24:34.279Z,89.5
2016-07-24T02:25:34.306Z,89.69
2016-07-24T02:26:34.334Z,89.89
2016-07-24T02:27:34.356Z,89.31
2016-07-24T02:28:34.394Z,89.4
2016-07-24T02:29:34.408Z,89.79
2016-07-24T02:30:34.440Z,89.02
2016-07-24T02:31:34.467Z,89.69
2016-07-24T02:32:34.497Z,89.89
2016-07-24T02:33:34.521Z,89.5
2016-07-24T02:34:34.546Z,89.98
2016-07-24T02:35:34.577Z,89.98
2016-07-24T02:36:34.602Z,90.08
2016-07-24T02:37:49.554Z,90.08
2016-07-24T02:38:34.656Z,89.98
2016-07-24T02:39:34.681Z,90.08
2016-07-24T02:40:34.705Z,90.17
2016-07-24T02:41:34.736Z,89.89
2016-07-24T02:42:34.764Z,90.08
2016-07-24T02:43:34.795Z,90.08
2016-07-24T02:44:34.820Z,89.98
2016-07-24T02:45:34.846Z,90.27
2016-07-24T02:46:34.880Z,90.27
2016-07-24T02:48:34.931Z,90.66
2016-07-24T02:49:34.950Z,90.46
2016-07-24T02:51:35.011Z,90.22
2016-07-24T02:52:35.036Z,90.46
2016-07-24T02:53:49.984Z,90.94
2016-07-24T02:54:35.087Z,90.7
2016-07-24T02:55:35.114Z,90.9
2016-07-24T02:56:35.140Z,90.7
2016-07-24T02:57:35.168Z,91.04
2016-07-24T02:58:35.194Z,90.99
2016-07-24T02:59:35.218Z,91.19
2016-07-24T03:00:35.248Z,91.09
2016-07-24T03:01:35.280Z,91.19
2016-07-24T03:02:35.302Z,91.33
2016-07-24T03:03:35.333Z,90.94
2016-07-24T03:04:35.358Z,91.09
2016-07-24T03:06:35.412Z,91.38
2016-07-24T03:07:35.444Z,91.28
2016-07-24T03:08:50.390Z,91.38
2016-07-24T03:09:35.492Z,91.19
2016-07-24T03:10:35.521Z,91.47
2016-07-24T03:11:35.548Z,91.66
2016-07-24T03:12:35.571Z,91.57
2016-07-24T03:13:35.604Z,91.38
2016-07-24T03:14:35.629Z,91.66
2016-07-24T03:15:35.654Z,91.47
2016-07-24T03:16:35.687Z,91.66
2016-07-24T03:17:35.707Z,91.47
2016-07-24T03:18:35.740Z,91.47
2016-07-24T03:19:35.768Z,91.09
2016-07-24T03:20:35.790Z,91.66
2016-07-24T03:21:35.817Z,91.66
2016-07-24T03:22:35.845Z,91.86
2016-07-24T03:23:35.873Z,91.96
2016-07-24T03:24:35.897Z,92.33
2016-07-24T03:25:35.921Z,92.33
2016-07-24T03:26:35.950Z,92.14
2016-07-24T03:27:35.976Z,92.14
2016-07-24T03:28:36.059Z,92.24
2016-07-24T03:29:36.032Z,92.14
2016-07-24T03:30:36.064Z,91.47
2016-07-24T03:31:36.086Z,91.86
2016-07-24T03:32:36.116Z,92.14
2016-07-24T03:33:36.136Z,91.86
2016-07-24T03:34:36.178Z,91.96
2016-07-24T03:35:36.206Z,91.96
2016-07-24T03:36:36.219Z,91.86
2016-07-24T03:37:36.246Z,92.05
2016-07-24T03:38:36.277Z,91.96
2016-07-24T03:39:36.303Z,91.96
2016-07-24T03:40:51.251Z,91.57
2016-07-24T03:41:36.362Z,91.38
2016-07-24T03:42:36.378Z,91.13
2016-07-24T03:43:36.407Z,91.57
2016-07-24T03:44:36.437Z,91.33
2016-07-24T03:45:36.464Z,90.94
2016-07-24T03:46:36.489Z,90.27
2016-07-24T03:47:36.512Z,90.66
2016-07-24T03:48:36.543Z,90.66
2016-07-24T03:49:36.572Z,90.66
2016-07-24T03:50:36.599Z,89.89
2016-07-24T03:51:36.627Z,89.98
2016-07-24T03:52:36.647Z,90.03
2016-07-24T03:53:36.684Z,89.45
2016-07-24T03:56:51.681Z,89.07
2016-07-24T03:57:36.786Z,89.07
2016-07-24T03:58:36.809Z,88.97
2016-07-24T03:59:36.840Z,88.97
2016-07-24T04:00:36.862Z,88.3
2016-07-24T04:01:36.906Z,88.87
2016-07-24T04:02:36.920Z,89.07
2016-07-24T04:03:36.949Z,89.45
2016-07-24T04:04:36.972Z,88.68
2016-07-24T04:05:37.002Z,88.49
2016-07-24T04:06:37.026Z,88.87
2016-07-24T04:07:37.051Z,88.68
2016-07-24T04:08:37.079Z,88.49
2016-07-24T04:09:37.109Z,88.59
2016-07-24T04:10:37.135Z,89.16
2016-07-24T04:11:37.164Z,88.87
2016-07-24T04:12:52.112Z,88.68
2016-07-24T04:13:37.212Z,88.39
2016-07-24T04:14:37.241Z,88.59
2016-07-24T04:15:37.272Z,88.87
2016-07-24T04:16:37.296Z,89.16
2016-07-24T04:17:37.322Z,88.39
2016-07-24T04:18:37.348Z,88.87
2016-07-24T04:19:37.375Z,88.39
2016-07-24T04:20:37.407Z,87.15
2016-07-24T04:21:37.428Z,87.96
2016-07-24T04:22:37.462Z,87.86
2016-07-24T04:23:37.483Z,87.67
2016-07-24T04:24:37.514Z,87.38
2016-07-24T04:25:37.541Z,87.57
2016-07-24T04:26:37.571Z,86.61
2016-07-24T04:27:37.592Z,86.42
2016-07-24T04:28:52.545Z,86.22
2016-07-24T04:29:37.649Z,86.61
2016-07-24T04:30:37.674Z,86.52
2016-07-24T04:31:37.701Z,86.71
2016-07-24T04:32:37.728Z,86.52
2016-07-24T04:33:37.755Z,86.42
2016-07-24T04:34:37.783Z,86.71
2016-07-24T04:35:37.810Z,86.27
2016-07-24T04:36:37.840Z,86.32
2016-07-24T04:37:37.867Z,86.71
2016-07-24T04:38:37.888Z,86.42
2016-07-24T04:39:37.917Z,85.94
2016-07-24T04:40:37.945Z,86.18
2016-07-24T04:42:37.999Z,85.78
2016-07-24T04:43:52.958Z,85.6
2016-07-24T04:45:38.084Z,85.78
2016-07-24T04:46:38.110Z,84.92
2016-07-24T04:47:38.140Z,84.92
2016-07-24T04:48:38.164Z,84.73
2016-07-24T04:49:38.192Z,85.31
2016-07-24T04:50:38.220Z,84.54
2016-07-24T04:51:38.247Z,84.25
2016-07-24T04:52:38.274Z,83.62
2016-07-24T04:53:38.304Z,84.39
2016-07-24T04:54:38.336Z,83.91
2016-07-24T04:55:38.355Z,83.81
2016-07-24T04:56:38.384Z,83.14
2016-07-24T04:57:38.417Z,83.23
2016-07-24T04:58:38.440Z,83.33
2016-07-24T04:59:38.470Z,83.33
2016-07-24T05:00:38.492Z,83.14
2016-07-24T05:01:38.542Z,83.33
2016-07-24T05:02:38.548Z,83.33
2016-07-24T05:03:38.593Z,83.33
2016-07-24T05:04:38.598Z,83.23
2016-07-24T05:05:38.631Z,83.81
2016-07-24T05:06:38.658Z,83.81
2016-07-24T05:07:38.683Z,84
2016-07-24T05:08:38.713Z,83.42
2016-07-24T05:10:38.778Z,83.04
2016-07-24T05:11:38.797Z,83.33
2016-07-24T05:12:38.821Z,82.75
2016-07-24T05:13:38.852Z,82.75
2016-07-24T05:14:38.876Z,81.98
2016-07-24T05:15:53.979Z,82.27
2016-07-24T05:17:38.960Z,82.31
2016-07-24T05:18:38.993Z,82.5
2016-07-24T05:19:39.011Z,81.93
2016-07-24T05:20:39.041Z,81.93
2016-07-24T05:21:39.072Z,81.73
2016-07-24T05:22:39.098Z,81.93
2016-07-24T05:23:39.127Z,81.83
2016-07-24T05:24:39.149Z,81.25
2016-07-24T05:25:39.191Z,81.63
2016-07-24T05:26:39.209Z,80.77
2016-07-24T05:28:39.259Z,80.87
2016-07-24T05:29:39.300Z,80.71
2016-07-24T05:30:39.316Z,81.16
2016-07-24T05:31:54.268Z,81.01
2016-07-24T05:32:39.373Z,81.73
2016-07-24T05:33:39.400Z,81.58
2016-07-24T05:34:39.779Z,80.81
2016-07-24T05:35:39.458Z,80.43
2016-07-24T05:36:39.481Z,80.43
2016-07-24T05:37:39.510Z,80.04
2016-07-24T05:38:39.541Z,79.75
2016-07-24T05:39:39.563Z,80.14
2016-07-24T05:40:39.588Z,80.77
2016-07-24T05:41:39.617Z,80.68
2016-07-24T05:42:39.649Z,80.77
2016-07-24T05:43:39.674Z,81.63
2016-07-24T05:44:39.699Z,80.68
2016-07-24T05:45:39.734Z,80.91
2016-07-24T05:46:39.756Z,80.52
2016-07-24T05:47:54.713Z,80.14
2016-07-24T05:48:39.816Z,79.36
2016-07-24T05:49:39.842Z,78.69
2016-07-24T05:50:39.867Z,78.73
2016-07-24T05:51:39.901Z,78.25
2016-07-24T05:52:39.925Z,77.38
2016-07-24T05:53:39.955Z,76.93
2016-07-24T05:54:39.985Z,74.08
2016-07-24T05:55:40.013Z,72.48
2016-07-24T05:56:40.042Z,71.39
2016-07-24T05:57:40.068Z,67.85
2016-07-24T05:58:40.099Z,65.4
2016-07-24T05:59:40.134Z,64.4
2016-07-24T06:00:40.156Z,63.27
2016-07-24T06:01:40.191Z,62.04
2016-07-24T06:02:40.214Z,59.94
2016-07-24T06:03:55.175Z,58.97
2016-07-24T06:05:40.360Z,56.98
2016-07-24T06:07:40.372Z,56.24
2016-07-24T06:08:40.406Z,56.62
2016-07-24T06:09:40.438Z,55.65
2016-07-24T06:10:40.471Z,55
2016-07-24T06:11:40.501Z,53.96
2016-07-24T06:12:40.536Z,53.38
2016-07-24T06:13:40.566Z,52.98
2016-07-24T06:14:40.597Z,52.04
2016-07-24T06:16:40.666Z,50.63
2016-07-24T06:17:40.698Z,51.36
2016-07-24T06:18:55.656Z,52.26
2016-07-24T06:20:40.797Z,50.63
2016-07-24T06:21:40.828Z,50.51
2016-07-24T06:22:40.857Z,51.48
2016-07-24T06:23:40.896Z,52.11
2016-07-24T06:24:40.927Z,54.32
2016-07-24T06:25:40.960Z,55.43
2016-07-24T06:26:40.992Z,57.22
2016-07-24T06:27:41.024Z,58.74
2016-07-24T06:28:41.057Z,59.97
2016-07-24T06:29:41.092Z,59.69
2016-07-24T06:30:41.126Z,59.3
2016-07-24T06:31:41.153Z,59.49
2016-07-24T06:32:41.184Z,59.91
2016-07-24T06:33:41.232Z,60.36
2016-07-24T06:36:41.314Z,59.03
2016-07-24T06:37:41.348Z,59.03
2016-07-24T06:38:41.375Z,58.74
2016-07-24T06:39:41.406Z,58.94
2016-07-24T06:40:41.446Z,58.91
2016-07-24T06:41:41.473Z,58.74
2016-07-24T06:42:41.507Z,57.61
2016-07-24T06:43:41.540Z,57.7
2016-07-24T06:44:41.571Z,57.97
2016-07-24T06:45:41.601Z,56.93
2016-07-24T06:46:41.684Z,56.93
2016-07-24T06:47:41.667Z,56.18
2016-07-24T06:49:41.726Z,54.94
2016-07-24T06:50:56.684Z,54.46
2016-07-24T06:51:41.796Z,54.49
2016-07-24T06:53:41.855Z,53.81
2016-07-24T06:54:41.885Z,53.52
2016-07-24T06:55:41.925Z,53.52
2016-07-24T06:56:41.952Z,53.74
2016-07-24T06:57:41.995Z,53.06
2016-07-24T06:58:42.022Z,53.45
2016-07-24T06:59:42.052Z,53.25
2016-07-24T07:00:42.085Z,52.67
2016-07-24T07:01:42.120Z,52.5
2016-07-24T07:02:42.153Z,52.01
2016-07-24T07:03:42.191Z,51.92
2016-07-24T07:04:42.218Z,52.21
2016-07-24T07:05:42.249Z,52.5
2016-07-24T07:06:57.208Z,52.89
2016-07-24T07:07:42.317Z,53.13
2016-07-24T07:08:42.347Z,53.52
2016-07-24T07:09:42.378Z,53.71
2016-07-24T07:10:42.408Z,53.91
2016-07-24T07:11:42.445Z,52.76
2016-07-24T07:12:42.480Z,52.19
2016-07-24T07:13:42.506Z,51.53
2016-07-24T07:14:42.543Z,51.43
2016-07-24T07:16:42.611Z,49.92
2016-07-24T07:17:42.637Z,50.02
2016-07-24T07:18:43.371Z,49.24
2016-07-24T07:19:42.703Z,50.14
2016-07-24T07:20:42.737Z,48.39
2016-07-24T07:21:42.771Z,49.39
2016-07-24T07:22:57.730Z,49.05
2016-07-24T07:23:42.838Z,49.07
2016-07-24T07:24:42.872Z,49.24
2016-07-24T07:25:42.900Z,49.05
2016-07-24T07:26:42.931Z,48.68
2016-07-24T07:27:42.968Z,49.66
2016-07-24T07:28:43.001Z,49.02
2016-07-24T07:29:43.038Z,49.8
2016-07-24T07:30:43.065Z,50.19
2016-07-24T07:31:43.103Z,49.51
2016-07-24T07:32:43.133Z,48.85
2016-07-24T07:33:43.169Z,48.85
2016-07-24T07:35:43.232Z,49.05
2016-07-24T07:36:43.264Z,50.02
2016-07-24T07:37:43.300Z,49.73
2016-07-24T07:38:58.255Z,49.73
2016-07-24T07:39:43.361Z,49.24
2016-07-24T07:40:43.396Z,48.36
2016-07-24T07:41:43.429Z,48.19
2016-07-24T07:42:43.466Z,48.58
2016-07-24T07:43:43.495Z,47.9
2016-07-24T07:44:43.525Z,47.34
2016-07-24T07:45:43.564Z,47.92
2016-07-24T07:46:43.591Z,48.02
2016-07-24T07:47:43.629Z,47.63
2016-07-24T07:48:43.658Z,47.63
2016-07-24T07:49:43.697Z,46.78
2016-07-24T07:50:43.783Z,46.02
2016-07-24T07:51:43.760Z,46.9
2016-07-24T07:52:43.793Z,46.59
2016-07-24T07:53:58.755Z,45.51
2016-07-24T07:54:43.864Z,46.02
2016-07-24T07:55:43.895Z,46.02
2016-07-24T07:56:43.930Z,45.92
2016-07-24T07:57:43.959Z,46.8
2016-07-24T07:58:43.991Z,47.17
2016-07-24T07:59:44.028Z,46.86
2016-07-24T08:00:44.062Z,47.75
2016-07-24T08:01:44.090Z,46.97
2016-07-24T08:02:44.129Z,46.9
2016-07-24T08:03:44.158Z,45.64
2016-07-24T08:04:44.187Z,44.78
2016-07-24T08:05:44.227Z,45.56
2016-07-24T08:06:44.255Z,46.12
2016-07-24T08:07:44.289Z,46.9
2016-07-24T08:08:44.323Z,46.02
2016-07-24T08:09:44.358Z,46.49
2016-07-24T08:10:44.386Z,46.97
2016-07-24T08:11:44.425Z,47.53
2016-07-24T08:12:44.458Z,48.22
2016-07-24T08:13:44.491Z,49.27
2016-07-24T08:14:44.522Z,48.56
2016-07-24T08:15:44.559Z,47.22
2016-07-24T08:16:44.592Z,47.44
2016-07-24T08:17:44.625Z,47.83
2016-07-24T08:18:44.650Z,48
2016-07-24T08:19:44.688Z,48.39
2016-07-24T08:20:44.721Z,49.17
2016-07-24T08:21:44.752Z,49.44
2016-07-24T08:22:44.785Z,49.44
2016-07-24T08:23:44.818Z,49.54
2016-07-24T08:24:44.852Z,49.99
2016-07-24T08:25:59.812Z,50.38
2016-07-24T08:26:44.920Z,49.24
2016-07-24T08:27:44.948Z,49.07
2016-07-24T08:28:44.985Z,48.49
2016-07-24T08:29:45.017Z,47.83
2016-07-24T08:30:45.049Z,48.68
2016-07-24T08:31:45.079Z,48.97
2016-07-24T08:32:45.114Z,50.02
2016-07-24T08:33:45.455Z,50.87
2016-07-24T08:34:45.181Z,50.87
2016-07-24T08:35:45.213Z,51.43
2016-07-24T08:36:45.245Z,51.14
2016-07-24T08:39:45.354Z,50.78
2016-07-24T08:40:45.376Z,50.58
2016-07-24T08:42:00.335Z,49.44
2016-07-24T08:42:45.445Z,48.66
2016-07-24T08:43:45.475Z,49.17
2016-07-24T08:44:45.504Z,49.83
2016-07-24T08:45:45.541Z,50.12
2016-07-24T08:46:45.571Z,50.78
2016-07-24T08:47:45.605Z,51.67
2016-07-24T08:48:45.636Z,50.97
2016-07-24T08:49:45.672Z,50.78
2016-07-24T08:50:45.703Z,51.07
2016-07-24T08:51:45.735Z,50.68
2016-07-24T08:53:45.812Z,49.15
2016-07-24T08:54:45.828Z,48.58
2016-07-24T08:55:45.868Z,48.32
2016-07-24T08:56:45.898Z,47.92
2016-07-24T08:58:00.851Z,47.66
2016-07-24T08:59:46.042Z,47.29
2016-07-24T09:00:46.026Z,46.69
2016-07-24T09:01:46.058Z,48.24
2016-07-24T09:02:46.091Z,48.29
2016-07-24T09:03:46.121Z,48.88
2016-07-24T09:04:46.158Z,49.19
2016-07-24T09:05:46.184Z,48.9
2016-07-24T09:06:46.222Z,47.63
2016-07-24T09:07:46.256Z,47.85
2016-07-24T09:08:46.280Z,47.07
2016-07-24T09:09:46.332Z,47.66
2016-07-24T09:10:46.346Z,48.97
2016-07-24T09:11:46.382Z,48.39
2016-07-24T09:12:46.413Z,48.41
2016-07-24T09:14:01.371Z,48.22
2016-07-24T09:14:46.473Z,47.92
2016-07-24T09:15:46.508Z,49.07
2016-07-24T09:16:46.542Z,49.66
2016-07-24T09:17:46.586Z,49.56
2016-07-24T09:18:46.606Z,48.95
2016-07-24T09:19:46.638Z,49.76
2016-07-24T09:20:46.670Z,49.39
2016-07-24T09:21:46.707Z,48.9
2016-07-24T09:22:46.737Z,47.85
2016-07-24T09:23:46.767Z,48.32
2016-07-24T09:24:46.802Z,48.05
2016-07-24T09:25:46.834Z,47.63
2016-07-24T09:26:46.867Z,47.56
2016-07-24T09:27:46.898Z,47.66
2016-07-24T09:29:01.860Z,47.44
2016-07-24T09:30:47.001Z,47.19
2016-07-24T09:31:47.032Z,47.29
2016-07-24T09:32:47.065Z,47.36
2016-07-24T09:33:47.095Z,48.22
2016-07-24T09:34:47.127Z,49.58
2016-07-24T09:35:47.157Z,49.37
2016-07-24T09:36:47.195Z,48.58
2016-07-24T09:37:47.226Z,48.29
2016-07-24T09:38:47.257Z,47.25
2016-07-24T09:39:47.290Z,46.7
2016-07-24T09:40:47.325Z,46.61
2016-07-24T09:41:47.355Z,45.44
2016-07-24T09:42:47.391Z,45.78
2016-07-24T09:43:47.421Z,44.43
2016-07-24T09:44:47.455Z,43.57
2016-07-24T09:45:47.487Z,44.16
2016-07-24T09:46:47.516Z,43.77
2016-07-24T09:47:47.551Z,44.14
2016-07-24T09:48:47.581Z,44.34
2016-07-24T09:49:47.615Z,45.85
2016-07-24T09:50:47.649Z,45.95
2016-07-24T09:51:47.684Z,45.54
2016-07-24T09:52:47.714Z,45.95
2016-07-24T09:53:47.747Z,46.04
2016-07-24T09:54:47.781Z,45.46
2016-07-24T09:55:47.815Z,45.46
2016-07-24T09:56:47.842Z,44.41
2016-07-24T09:58:47.913Z,45.36
2016-07-24T09:59:47.939Z,46.12
2016-07-24T10:01:02.901Z,46.8
2016-07-24T10:01:48.059Z,46.12
2016-07-24T10:02:48.038Z,45.36
2016-07-24T10:03:48.070Z,45.48
2016-07-24T10:04:48.109Z,44.31
2016-07-24T10:05:48.137Z,44.16
2016-07-24T10:06:48.168Z,43.57
2016-07-24T10:07:48.204Z,44.16
2016-07-24T10:08:48.239Z,43.48
2016-07-24T10:09:48.268Z,43.77
2016-07-24T10:10:48.299Z,43.75
2016-07-24T10:11:48.334Z,43.18
2016-07-24T10:13:48.392Z,42.32
2016-07-24T10:14:48.428Z,43.01
2016-07-24T10:15:48.465Z,42.71
2016-07-24T10:17:03.422Z,41.96
2016-07-24T10:17:48.529Z,41.29
2016-07-24T10:18:48.576Z,40.11
2016-07-24T10:19:48.593Z,39.76
2016-07-24T10:20:48.626Z,39.17
2016-07-24T10:21:48.658Z,39.76
2016-07-24T10:22:48.692Z,40.37
2016-07-24T10:23:48.725Z,38.51
2016-07-24T10:24:48.757Z,38.7
2016-07-24T10:25:48.792Z,38.9
2016-07-24T10:26:48.819Z,38.43
2016-07-24T10:27:48.855Z,38.82
2016-07-24T10:28:48.889Z,38.33
2016-07-24T10:29:48.923Z,37.78
2016-07-24T10:30:48.952Z,37.37
2016-07-24T10:31:48.988Z,37.48
2016-07-24T10:33:03.945Z,39.11
2016-07-24T10:33:49.049Z,39.66
2016-07-24T10:34:49.086Z,39.27
2016-07-24T10:35:49.128Z,39.39
2016-07-24T10:36:49.148Z,39.47
2016-07-24T10:37:49.186Z,40.82
2016-07-24T10:38:49.215Z,41.27
2016-07-24T10:39:49.251Z,42.32
2016-07-24T10:40:49.281Z,42.52
2016-07-24T10:41:49.318Z,42.21
2016-07-24T10:42:49.350Z,42.91
2016-07-24T10:43:49.385Z,42.71
2016-07-24T10:44:49.418Z,43.18
2016-07-24T10:45:49.453Z,43.3
2016-07-24T10:46:49.482Z,42.35
2016-07-24T10:47:49.519Z,40.9
2016-07-24T10:49:04.471Z,41.68
2016-07-24T10:49:49.582Z,41.39
2016-07-24T10:50:49.612Z,41
2016-07-24T10:51:49.643Z,41.39
2016-07-24T10:52:49.680Z,41.29
2016-07-24T10:53:49.713Z,40.6
2016-07-24T10:54:49.745Z,40.8
2016-07-24T10:55:49.774Z,40.33
2016-07-24T10:56:49.807Z,40.82
2016-07-24T10:57:49.854Z,41.09
2016-07-24T10:58:49.873Z,41.19
2016-07-24T10:59:49.908Z,40.6
2016-07-24T11:00:49.940Z,41.58
2016-07-24T11:01:49.975Z,42.35
2016-07-24T11:02:50.010Z,40.68
2016-07-24T11:04:04.965Z,40.5
2016-07-24T11:05:50.106Z,40.9
2016-07-24T11:06:50.138Z,41.68
2016-07-24T11:07:50.168Z,40.9
2016-07-24T11:08:50.208Z,41.49
2016-07-24T11:09:50.930Z,40.7
2016-07-24T11:10:50.274Z,41.29
2016-07-24T11:11:50.307Z,42.13
2016-07-24T11:12:50.338Z,43.08
2016-07-24T11:13:50.366Z,42.69
2016-07-24T11:14:50.403Z,43.08
2016-07-24T11:15:50.433Z,42.42
2016-07-24T11:17:50.500Z,42.71
2016-07-24T11:18:50.535Z,41.23
2016-07-24T11:19:50.562Z,41.15
2016-07-24T11:20:50.594Z,40.29
2016-07-24T11:21:50.625Z,40.31
2016-07-24T11:22:50.672Z,42.13
2016-07-24T11:23:50.689Z,41.82
2016-07-24T11:24:50.730Z,41.64
2016-07-24T11:25:50.761Z,41.44
2016-07-24T11:26:50.795Z,41.44
2016-07-24T11:27:50.822Z,41.46
2016-07-24T11:28:50.854Z,40.78
2016-07-24T11:29:50.889Z,41.25
2016-07-24T11:30:50.924Z,41.05
2016-07-24T11:31:50.951Z,41.62
2016-07-24T11:32:50.986Z,42.09
2016-07-24T11:33:51.019Z,41.5
2016-07-24T11:34:51.051Z,42.19
2016-07-24T11:36:06.010Z,41.77
2016-07-24T11:36:51.121Z,42.07
2016-07-24T11:37:51.149Z,41.87
2016-07-24T11:38:51.185Z,41.7
2016-07-24T11:39:51.213Z,41.89
2016-07-24T11:40:51.247Z,42.09
2016-07-24T11:41:51.277Z,42.19
2016-07-24T11:42:51.312Z,42.68
2016-07-24T11:43:51.346Z,43.33
2016-07-24T11:44:51.377Z,43.92
2016-07-24T11:45:51.407Z,44.38
2016-07-24T11:46:51.440Z,44.46
2016-07-24T11:47:51.473Z,45.71
2016-07-24T11:49:51.535Z,46.27
2016-07-24T11:50:51.571Z,45.78
2016-07-24T11:52:06.527Z,45.51
2016-07-24T11:52:51.683Z,44.76
2016-07-24T11:54:51.698Z,44.64
2016-07-24T11:55:51.729Z,43.98
2016-07-24T11:56:51.760Z,44.09
2016-07-24T11:57:51.794Z,43.04
2016-07-24T11:58:51.827Z,42.09
2016-07-24T11:59:51.863Z,42.77
2016-07-24T12:00:51.891Z,42.11
2016-07-24T12:01:51.971Z,42.01
2016-07-24T12:02:51.954Z,41.91
2016-07-24T12:03:51.988Z,42.5
2016-07-24T12:05:52.052Z,42.58
2016-07-24T12:06:52.087Z,43.07
2016-07-24T12:08:07.040Z,43.24
2016-07-24T12:08:52.150Z,42.75
2016-07-24T12:09:52.181Z,42.36
2016-07-24T12:10:52.211Z,43.04
2016-07-24T12:11:52.245Z,43.22
2016-07-24T12:12:52.276Z,43.9
2016-07-24T12:13:52.307Z,43.51
2016-07-24T12:14:52.346Z,42.73
2016-07-24T12:15:52.371Z,42.63
2016-07-24T12:16:52.404Z,42.93
2016-07-24T12:17:52.438Z,42.94
2016-07-24T12:18:52.466Z,41.67
2016-07-24T12:19:52.499Z,42.55
2016-07-24T12:21:52.564Z,40.72
2016-07-24T12:22:52.596Z,41.11
2016-07-24T12:24:07.557Z,42.48
2016-07-24T12:24:52.665Z,42.85
2016-07-24T12:25:52.693Z,42.65
2016-07-24T12:27:52.764Z,43.99
2016-07-24T12:28:52.787Z,43.99
2016-07-24T12:29:52.820Z,43.78
2016-07-24T12:30:52.854Z,43.88
2016-07-24T12:31:52.888Z,43.68
2016-07-24T12:32:52.917Z,43.59
2016-07-24T12:33:52.954Z,43.88
2016-07-24T12:34:52.985Z,43.98
2016-07-24T12:35:53.014Z,44.17
2016-07-24T12:36:53.051Z,43.8
2016-07-24T12:37:53.083Z,43.99
2016-07-24T12:39:08.038Z,44.27
2016-07-24T12:40:53.176Z,43.99
2016-07-24T12:41:53.208Z,42.44
2016-07-24T12:42:53.238Z,42.44
2016-07-24T12:43:53.274Z,43.24
2016-07-24T12:44:53.303Z,42.55
2016-07-24T12:45:53.338Z,42.16
2016-07-24T12:46:53.367Z,42.94
2016-07-24T12:48:53.432Z,40.82
2016-07-24T12:49:53.464Z,41.31
2016-07-24T12:51:53.523Z,42.97
2016-07-24T12:52:53.612Z,41.41
2016-07-24T12:53:53.592Z,40.45
2016-07-24T12:54:53.626Z,39.69
2016-07-24T12:55:53.653Z,38.12
2016-07-24T12:56:53.688Z,37.73
2016-07-24T12:57:53.716Z,38.69
2016-07-24T12:58:53.748Z,38.32
2016-07-24T12:59:53.787Z,37.54
2016-07-24T13:00:53.814Z,37.06
2016-07-24T13:01:53.847Z,37.45
2016-07-24T13:02:53.879Z,37.54
2016-07-24T13:03:53.920Z,38.43
2016-07-24T13:04:53.947Z,37.37
2016-07-24T13:05:53.982Z,37.67
2016-07-24T13:06:54.008Z,38.73
2016-07-24T13:08:54.078Z,39.59
2016-07-24T13:09:54.106Z,39.1
2016-07-24T13:11:09.063Z,40.16
2016-07-24T13:11:54.169Z,41.28
2016-07-24T13:12:54.202Z,42.44
2016-07-24T13:13:54.236Z,42.32
2016-07-24T13:14:54.268Z,42.51
2016-07-24T13:15:54.298Z,42.83
2016-07-24T13:16:54.329Z,42.24
2016-07-24T13:17:54.359Z,41.85
2016-07-24T13:18:54.396Z,42.05
2016-07-24T13:19:54.431Z,42.34
2016-07-24T13:20:54.457Z,42.14
2016-07-24T13:21:54.494Z,42.34
2016-07-24T13:22:54.524Z,42.51
2016-07-24T13:23:54.551Z,43.19
2016-07-24T13:24:54.587Z,43.59
2016-07-24T13:25:54.618Z,43.78
2016-07-24T13:27:09.576Z,43.98
2016-07-24T13:27:54.680Z,44.05
2016-07-24T13:28:54.717Z,43.98
2016-07-24T13:29:54.744Z,42.3
2016-07-24T13:30:54.783Z,42.88
2016-07-24T13:31:54.815Z,43.18
2016-07-24T13:32:54.844Z,42.79
2016-07-24T13:33:54.872Z,43.05
2016-07-24T13:34:54.906Z,43.15
2016-07-24T13:35:54.932Z,44.13
2016-07-24T13:36:54.966Z,42.59
2016-07-24T13:37:55.002Z,43.08
2016-07-24T13:38:55.032Z,42.51
2016-07-24T13:40:55.093Z,41.87
2016-07-24T13:41:55.127Z,42.26
2016-07-24T13:43:10.083Z,40.82
2016-07-24T13:43:55.194Z,41.58
2016-07-24T13:44:55.232Z,41.41